Terminal Aerodrome Forecast
Issued by NWS

Home | Current Version | Previous Version | Text Only | Print | Product List | Glossary On
Versions: 1 2 3 4 5 6 7 8 9 10 11 12 13 14 15
669
FTUS41 KILN 221135
TAFLUK
TAF
KLUK 221135Z 2212/2312 20005KT P6SM OVC250
     FM221700 20010KT P6SM SCT050 OVC250
     FM222200 19011KT P6SM VCSH OVC050
     FM230000 17010KT 6SM SHRA BR OVC035
     FM230200 17010KT 5SM SHRA BR OVC018
     FM230400 19011KT P6SM OVC012
     FM230900 21009KT 4SM SHRA BR OVC012=

USA.gov is the U.S. government's official web portal to all federal, state and local government web resources and services.